sensor_id;sensor_type;location;lat;lon;timestamp;P1;durP1;ratioP1;P2;durP2;ratioP2
73650;SDS011;61944;52.538;6.108;2022-09-28T00:01:44;21.85;;;12.65;;
73650;SDS011;61944;52.538;6.108;2022-09-28T00:04:10;19.02;;;12.82;;
73650;SDS011;61944;52.538;6.108;2022-09-28T00:06:36;18.90;;;11.77;;
73650;SDS011;61944;52.538;6.108;2022-09-28T00:09:02;22.30;;;12.38;;
73650;SDS011;61944;52.538;6.108;2022-09-28T00:11:28;23.63;;;13.40;;
73650;SDS011;61944;52.538;6.108;2022-09-28T00:13:54;25.70;;;13.60;;
73650;SDS011;61944;52.538;6.108;2022-09-28T00:16:24;18.73;;;12.65;;
73650;SDS011;61944;52.538;6.108;2022-09-28T00:18:50;20.02;;;11.85;;
73650;SDS011;61944;52.538;6.108;2022-09-28T00:21:23;22.02;;;13.50;;
73650;SDS011;61944;52.538;6.108;2022-09-28T00:23:52;21.55;;;12.98;;
73650;SDS011;61944;52.538;6.108;2022-09-28T00:26:37;20.42;;;13.38;;
73650;SDS011;61944;52.538;6.108;2022-09-28T00:29:05;24.15;;;13.63;;
73650;SDS011;61944;52.538;6.108;2022-09-28T00:31:32;26.70;;;15.02;;
73650;SDS011;61944;52.538;6.108;2022-09-28T00:33:59;22.42;;;13.23;;
73650;SDS011;61944;52.538;6.108;2022-09-28T00:36:26;23.90;;;15.27;;
73650;SDS011;61944;52.538;6.108;2022-09-28T00:38:53;24.90;;;14.27;;
73650;SDS011;61944;52.538;6.108;2022-09-28T00:41:20;25.75;;;15.38;;
73650;SDS011;61944;52.538;6.108;2022-09-28T00:43:46;28.02;;;15.95;;
73650;SDS011;61944;52.538;6.108;2022-09-28T00:46:16;23.80;;;14.18;;
73650;SDS011;61944;52.538;6.108;2022-09-28T00:48:51;30.33;;;17.17;;
73650;SDS011;61944;52.538;6.108;2022-09-28T00:51:20;25.00;;;15.55;;
73650;SDS011;61944;52.538;6.108;2022-09-28T00:53:48;26.70;;;14.75;;
73650;SDS011;61944;52.538;6.108;2022-09-28T00:56:16;24.70;;;15.35;;
73650;SDS011;61944;52.538;6.108;2022-09-28T00:58:45;27.50;;;14.68;;
73650;SDS011;61944;52.538;6.108;2022-09-28T01:01:14;27.55;;;14.77;;
73650;SDS011;61944;52.538;6.108;2022-09-28T01:03:39;28.65;;;16.65;;
73650;SDS011;61944;52.538;6.108;2022-09-28T01:06:09;32.25;;;16.63;;
73650;SDS011;61944;52.538;6.108;2022-09-28T01:08:39;25.40;;;15.52;;
73650;SDS011;61944;52.538;6.108;2022-09-28T01:11:05;29.02;;;16.38;;
73650;SDS011;61944;52.538;6.108;2022-09-28T01:13:31;25.33;;;14.88;;
73650;SDS011;61944;52.538;6.108;2022-09-28T01:15:58;29.38;;;15.63;;
73650;SDS011;61944;52.538;6.108;2022-09-28T01:19:04;28.83;;;16.25;;
73650;SDS011;61944;52.538;6.108;2022-09-28T01:27:42;27.65;;;16.40;;
73650;SDS011;61944;52.538;6.108;2022-09-28T01:30:14;31.90;;;17.35;;
73650;SDS011;61944;52.538;6.108;2022-09-28T01:32:45;29.10;;;15.30;;
73650;SDS011;61944;52.538;6.108;2022-09-28T01:35:17;27.55;;;16.38;;
73650;SDS011;61944;52.538;6.108;2022-09-28T01:37:54;27.67;;;16.63;;
73650;SDS011;61944;52.538;6.108;2022-09-28T01:40:24;29.75;;;17.50;;
73650;SDS011;61944;52.538;6.108;2022-09-28T01:42:57;31.48;;;16.65;;
73650;SDS011;61944;52.538;6.108;2022-09-28T01:45:44;31.83;;;17.77;;
73650;SDS011;61944;52.538;6.108;2022-09-28T01:48:15;28.67;;;16.40;;
73650;SDS011;61944;52.538;6.108;2022-09-28T01:50:45;30.98;;;17.40;;
73650;SDS011;61944;52.538;6.108;2022-09-28T01:53:17;32.33;;;16.65;;
73650;SDS011;61944;52.538;6.108;2022-09-28T01:55:47;31.15;;;15.93;;
73650;SDS011;61944;52.538;6.108;2022-09-28T01:58:17;31.15;;;18.08;;
73650;SDS011;61944;52.538;6.108;2022-09-28T02:00:45;32.53;;;17.30;;
73650;SDS011;61944;52.538;6.108;2022-09-28T02:05:56;35.55;;;19.30;;
73650;SDS011;61944;52.538;6.108;2022-09-28T02:08:32;29.88;;;17.35;;
73650;SDS011;61944;52.538;6.108;2022-09-28T02:11:07;34.08;;;17.90;;
73650;SDS011;61944;52.538;6.108;2022-09-28T02:16:24;35.40;;;18.73;;
73650;SDS011;61944;52.538;6.108;2022-09-28T02:18:58;39.67;;;19.50;;
73650;SDS011;61944;52.538;6.108;2022-09-28T02:21:25;43.05;;;19.95;;
73650;SDS011;61944;52.538;6.108;2022-09-28T02:23:56;37.95;;;18.45;;
73650;SDS011;61944;52.538;6.108;2022-09-28T02:26:28;37.75;;;19.52;;
73650;SDS011;61944;52.538;6.108;2022-09-28T02:28:56;38.15;;;20.00;;
73650;SDS011;61944;52.538;6.108;2022-09-28T02:31:23;43.58;;;20.50;;
73650;SDS011;61944;52.538;6.108;2022-09-28T02:33:49;40.08;;;20.98;;
73650;SDS011;61944;52.538;6.108;2022-09-28T02:36:17;34.95;;;18.60;;
73650;SDS011;61944;52.538;6.108;2022-09-28T02:38:42;44.25;;;21.00;;
73650;SDS011;61944;52.538;6.108;2022-09-28T02:41:19;40.67;;;20.23;;
73650;SDS011;61944;52.538;6.108;2022-09-28T02:46:53;46.33;;;21.27;;
73650;SDS011;61944;52.538;6.108;2022-09-28T02:52:07;34.95;;;19.75;;
73650;SDS011;61944;52.538;6.108;2022-09-28T02:54:55;39.80;;;20.48;;
73650;SDS011;61944;52.538;6.108;2022-09-28T02:57:29;38.83;;;21.40;;
73650;SDS011;61944;52.538;6.108;2022-09-28T03:00:12;43.15;;;21.38;;
73650;SDS011;61944;52.538;6.108;2022-09-28T03:05:29;39.47;;;20.52;;
73650;SDS011;61944;52.538;6.108;2022-09-28T03:08:02;34.65;;;19.63;;
73650;SDS011;61944;52.538;6.108;2022-09-28T03:13:12;39.67;;;21.58;;
73650;SDS011;61944;52.538;6.108;2022-09-28T03:15:40;35.40;;;19.27;;
73650;SDS011;61944;52.538;6.108;2022-09-28T03:18:06;34.78;;;18.50;;
73650;SDS011;61944;52.538;6.108;2022-09-28T03:20:32;35.58;;;18.70;;
73650;SDS011;61944;52.538;6.108;2022-09-28T03:22:58;33.55;;;18.17;;
73650;SDS011;61944;52.538;6.108;2022-09-28T03:25:25;35.97;;;18.75;;
73650;SDS011;61944;52.538;6.108;2022-09-28T03:27:50;36.08;;;17.85;;
73650;SDS011;61944;52.538;6.108;2022-09-28T03:30:16;29.17;;;16.63;;
73650;SDS011;61944;52.538;6.108;2022-09-28T03:32:41;32.97;;;16.33;;
73650;SDS011;61944;52.538;6.108;2022-09-28T03:35:07;27.23;;;16.17;;
73650;SDS011;61944;52.538;6.108;2022-09-28T03:37:33;28.63;;;15.25;;
73650;SDS011;61944;52.538;6.108;2022-09-28T03:39:59;29.08;;;15.95;;
73650;SDS011;61944;52.538;6.108;2022-09-28T03:42:25;24.58;;;14.40;;
73650;SDS011;61944;52.538;6.108;2022-09-28T03:44:50;23.80;;;14.93;;
73650;SDS011;61944;52.538;6.108;2022-09-28T03:47:15;27.80;;;16.05;;
73650;SDS011;61944;52.538;6.108;2022-09-28T03:49:42;26.10;;;15.13;;
73650;SDS011;61944;52.538;6.108;2022-09-28T03:52:07;26.63;;;14.90;;
73650;SDS011;61944;52.538;6.108;2022-09-28T03:54:33;24.83;;;14.63;;
73650;SDS011;61944;52.538;6.108;2022-09-28T03:56:58;24.70;;;14.15;;
73650;SDS011;61944;52.538;6.108;2022-09-28T03:59:24;21.40;;;13.55;;
73650;SDS011;61944;52.538;6.108;2022-09-28T04:01:49;26.35;;;15.02;;
73650;SDS011;61944;52.538;6.108;2022-09-28T04:04:15;26.10;;;13.70;;
73650;SDS011;61944;52.538;6.108;2022-09-28T04:06:41;21.30;;;13.95;;
73650;SDS011;61944;52.538;6.108;2022-09-28T04:09:07;22.50;;;12.10;;
73650;SDS011;61944;52.538;6.108;2022-09-28T04:11:32;21.20;;;11.75;;
73650;SDS011;61944;52.538;6.108;2022-09-28T04:13:58;19.75;;;12.23;;
73650;SDS011;61944;52.538;6.108;2022-09-28T04:16:23;22.42;;;13.18;;
73650;SDS011;61944;52.538;6.108;2022-09-28T04:18:49;21.58;;;11.63;;
73650;SDS011;61944;52.538;6.108;2022-09-28T04:21:16;20.98;;;13.07;;
73650;SDS011;61944;52.538;6.108;2022-09-28T04:23:42;22.85;;;13.63;;
73650;SDS011;61944;52.538;6.108;2022-09-28T04:28:44;20.38;;;11.68;;
73650;SDS011;61944;52.538;6.108;2022-09-28T04:31:29;22.75;;;12.63;;
73650;SDS011;61944;52.538;6.108;2022-09-28T04:34:00;20.60;;;11.73;;
73650;SDS011;61944;52.538;6.108;2022-09-28T04:36:26;20.63;;;13.63;;
73650;SDS011;61944;52.538;6.108;2022-09-28T04:38:51;23.08;;;12.82;;
73650;SDS011;61944;52.538;6.108;2022-09-28T04:41:16;20.15;;;12.32;;
73650;SDS011;61944;52.538;6.108;2022-09-28T04:43:42;18.85;;;11.60;;
73650;SDS011;61944;52.538;6.108;2022-09-28T04:46:08;19.52;;;11.70;;
73650;SDS011;61944;52.538;6.108;2022-09-28T04:48:36;20.48;;;12.02;;
73650;SDS011;61944;52.538;6.108;2022-09-28T04:51:01;18.33;;;11.75;;
73650;SDS011;61944;52.538;6.108;2022-09-28T04:53:27;21.70;;;12.73;;
73650;SDS011;61944;52.538;6.108;2022-09-28T04:55:57;18.00;;;10.73;;
73650;SDS011;61944;52.538;6.108;2022-09-28T04:58:24;22.55;;;12.13;;
73650;SDS011;61944;52.538;6.108;2022-09-28T05:00:50;19.83;;;11.88;;
73650;SDS011;61944;52.538;6.108;2022-09-28T05:03:17;20.17;;;11.80;;
73650;SDS011;61944;52.538;6.108;2022-09-28T05:05:43;21.13;;;11.77;;
73650;SDS011;61944;52.538;6.108;2022-09-28T05:08:09;19.77;;;11.40;;
73650;SDS011;61944;52.538;6.108;2022-09-28T05:10:35;19.33;;;11.98;;
73650;SDS011;61944;52.538;6.108;2022-09-28T05:13:01;20.13;;;11.48;;
73650;SDS011;61944;52.538;6.108;2022-09-28T05:15:26;18.77;;;11.68;;
73650;SDS011;61944;52.538;6.108;2022-09-28T05:17:51;19.23;;;11.93;;
73650;SDS011;61944;52.538;6.108;2022-09-28T05:20:17;17.15;;;10.82;;
73650;SDS011;61944;52.538;6.108;2022-09-28T05:22:42;19.30;;;11.95;;
73650;SDS011;61944;52.538;6.108;2022-09-28T05:25:08;21.15;;;11.68;;
73650;SDS011;61944;52.538;6.108;2022-09-28T05:27:33;17.58;;;10.88;;
73650;SDS011;61944;52.538;6.108;2022-09-28T05:29:59;19.23;;;11.05;;
73650;SDS011;61944;52.538;6.108;2022-09-28T05:32:24;18.58;;;11.50;;
73650;SDS011;61944;52.538;6.108;2022-09-28T05:34:50;19.25;;;11.68;;
73650;SDS011;61944;52.538;6.108;2022-09-28T05:37:15;23.95;;;11.48;;
73650;SDS011;61944;52.538;6.108;2022-09-28T05:39:40;19.80;;;11.55;;
73650;SDS011;61944;52.538;6.108;2022-09-28T05:42:06;18.75;;;10.60;;
73650;SDS011;61944;52.538;6.108;2022-09-28T05:44:32;22.65;;;12.80;;
73650;SDS011;61944;52.538;6.108;2022-09-28T05:46:57;23.73;;;13.15;;
73650;SDS011;61944;52.538;6.108;2022-09-28T05:49:22;21.55;;;11.88;;
73650;SDS011;61944;52.538;6.108;2022-09-28T05:51:48;23.13;;;12.43;;
73650;SDS011;61944;52.538;6.108;2022-09-28T05:54:13;25.10;;;12.98;;
73650;SDS011;61944;52.538;6.108;2022-09-28T05:56:38;21.23;;;11.40;;
73650;SDS011;61944;52.538;6.108;2022-09-28T05:59:04;19.42;;;11.40;;
73650;SDS011;61944;52.538;6.108;2022-09-28T06:01:30;23.23;;;12.05;;
73650;SDS011;61944;52.538;6.108;2022-09-28T06:03:55;21.00;;;11.73;;
73650;SDS011;61944;52.538;6.108;2022-09-28T06:06:21;21.50;;;10.93;;
73650;SDS011;61944;52.538;6.108;2022-09-28T06:08:46;19.92;;;11.65;;
73650;SDS011;61944;52.538;6.108;2022-09-28T06:11:12;21.02;;;10.80;;
73650;SDS011;61944;52.538;6.108;2022-09-28T06:13:37;24.02;;;11.68;;
73650;SDS011;61944;52.538;6.108;2022-09-28T06:16:04;22.73;;;11.15;;
73650;SDS011;61944;52.538;6.108;2022-09-28T06:18:31;17.48;;;10.43;;
73650;SDS011;61944;52.538;6.108;2022-09-28T06:20:57;20.73;;;12.00;;
73650;SDS011;61944;52.538;6.108;2022-09-28T06:23:22;21.33;;;10.63;;
73650;SDS011;61944;52.538;6.108;2022-09-28T06:25:47;24.40;;;12.25;;
73650;SDS011;61944;52.538;6.108;2022-09-28T06:28:13;21.75;;;12.00;;
73650;SDS011;61944;52.538;6.108;2022-09-28T06:30:39;18.23;;;10.98;;
73650;SDS011;61944;52.538;6.108;2022-09-28T06:33:06;20.48;;;11.20;;
73650;SDS011;61944;52.538;6.108;2022-09-28T06:35:34;24.67;;;10.13;;
73650;SDS011;61944;52.538;6.108;2022-09-28T06:37:59;16.95;;;9.73;;
73650;SDS011;61944;52.538;6.108;2022-09-28T06:40:25;16.48;;;9.30;;
73650;SDS011;61944;52.538;6.108;2022-09-28T06:42:59;15.65;;;9.82;;
73650;SDS011;61944;52.538;6.108;2022-09-28T06:45:26;20.23;;;11.13;;
73650;SDS011;61944;52.538;6.108;2022-09-28T06:47:53;18.42;;;10.93;;
73650;SDS011;61944;52.538;6.108;2022-09-28T06:50:21;14.93;;;9.75;;
73650;SDS011;61944;52.538;6.108;2022-09-28T06:52:51;15.38;;;8.55;;
73650;SDS011;61944;52.538;6.108;2022-09-28T06:55:17;15.60;;;9.40;;
73650;SDS011;61944;52.538;6.108;2022-09-28T06:57:42;18.42;;;9.13;;
73650;SDS011;61944;52.538;6.108;2022-09-28T07:00:08;14.93;;;9.02;;
73650;SDS011;61944;52.538;6.108;2022-09-28T07:02:34;15.82;;;9.55;;
73650;SDS011;61944;52.538;6.108;2022-09-28T07:04:59;14.57;;;9.60;;
73650;SDS011;61944;52.538;6.108;2022-09-28T07:07:25;15.98;;;8.25;;
73650;SDS011;61944;52.538;6.108;2022-09-28T07:09:54;15.48;;;8.63;;
73650;SDS011;61944;52.538;6.108;2022-09-28T07:12:19;15.60;;;8.88;;
73650;SDS011;61944;52.538;6.108;2022-09-28T07:14:47;12.45;;;8.40;;
73650;SDS011;61944;52.538;6.108;2022-09-28T07:17:14;13.20;;;8.18;;
73650;SDS011;61944;52.538;6.108;2022-09-28T07:19:40;17.63;;;9.63;;
73650;SDS011;61944;52.538;6.108;2022-09-28T07:22:05;13.45;;;7.97;;
73650;SDS011;61944;52.538;6.108;2022-09-28T07:24:30;16.63;;;9.35;;
73650;SDS011;61944;52.538;6.108;2022-09-28T07:26:56;13.93;;;8.45;;
73650;SDS011;61944;52.538;6.108;2022-09-28T07:29:21;18.05;;;8.02;;
73650;SDS011;61944;52.538;6.108;2022-09-28T07:31:46;14.60;;;9.20;;
73650;SDS011;61944;52.538;6.108;2022-09-28T07:34:12;12.23;;;7.97;;
73650;SDS011;61944;52.538;6.108;2022-09-28T07:36:37;13.75;;;8.55;;
73650;SDS011;61944;52.538;6.108;2022-09-28T07:39:03;14.82;;;8.40;;
73650;SDS011;61944;52.538;6.108;2022-09-28T07:41:29;16.38;;;8.95;;
73650;SDS011;61944;52.538;6.108;2022-09-28T07:43:58;13.88;;;7.90;;
73650;SDS011;61944;52.538;6.108;2022-09-28T07:46:36;12.60;;;6.57;;
73650;SDS011;61944;52.538;6.108;2022-09-28T07:49:01;13.15;;;8.10;;
73650;SDS011;61944;52.538;6.108;2022-09-28T07:51:31;11.35;;;7.40;;
73650;SDS011;61944;52.538;6.108;2022-09-28T07:53:57;12.25;;;7.10;;
73650;SDS011;61944;52.538;6.108;2022-09-28T07:56:23;13.15;;;8.38;;
73650;SDS011;61944;52.538;6.108;2022-09-28T07:58:49;13.75;;;7.32;;
73650;SDS011;61944;52.538;6.108;2022-09-28T08:01:15;11.07;;;7.05;;
73650;SDS011;61944;52.538;6.108;2022-09-28T08:03:41;11.15;;;6.25;;
73650;SDS011;61944;52.538;6.108;2022-09-28T08:06:11;14.07;;;8.32;;
73650;SDS011;61944;52.538;6.108;2022-09-28T08:08:39;12.57;;;7.45;;
73650;SDS011;61944;52.538;6.108;2022-09-28T08:11:12;10.07;;;6.45;;
73650;SDS011;61944;52.538;6.108;2022-09-28T08:13:39;13.23;;;7.55;;
73650;SDS011;61944;52.538;6.108;2022-09-28T08:16:05;10.23;;;6.47;;
73650;SDS011;61944;52.538;6.108;2022-09-28T08:18:32;13.80;;;7.40;;
73650;SDS011;61944;52.538;6.108;2022-09-28T08:20:58;10.18;;;6.70;;
73650;SDS011;61944;52.538;6.108;2022-09-28T08:23:43;7.78;;;5.15;;
73650;SDS011;61944;52.538;6.108;2022-09-28T08:26:08;10.77;;;7.15;;
73650;SDS011;61944;52.538;6.108;2022-09-28T08:28:34;8.50;;;5.72;;
73650;SDS011;61944;52.538;6.108;2022-09-28T08:30:59;11.00;;;7.03;;
73650;SDS011;61944;52.538;6.108;2022-09-28T08:33:31;10.35;;;6.15;;
73650;SDS011;61944;52.538;6.108;2022-09-28T08:35:57;11.57;;;5.75;;
73650;SDS011;61944;52.538;6.108;2022-09-28T08:38:24;9.02;;;6.38;;
73650;SDS011;61944;52.538;6.108;2022-09-28T08:46:08;8.93;;;5.30;;
73650;SDS011;61944;52.538;6.108;2022-09-28T08:48:37;7.35;;;4.15;;
73650;SDS011;61944;52.538;6.108;2022-09-28T08:51:22;8.90;;;5.53;;
73650;SDS011;61944;52.538;6.108;2022-09-28T08:56:49;7.15;;;4.30;;
73650;SDS011;61944;52.538;6.108;2022-09-28T08:59:24;6.63;;;4.63;;
73650;SDS011;61944;52.538;6.108;2022-09-28T09:01:54;8.82;;;4.82;;
73650;SDS011;61944;52.538;6.108;2022-09-28T09:04:23;8.40;;;4.63;;
73650;SDS011;61944;52.538;6.108;2022-09-28T09:15:01;9.85;;;5.07;;
73650;SDS011;61944;52.538;6.108;2022-09-28T09:20:16;5.80;;;3.15;;
73650;SDS011;61944;52.538;6.108;2022-09-28T09:22:58;5.53;;;3.03;;
73650;SDS011;61944;52.538;6.108;2022-09-28T09:30:26;4.78;;;2.40;;
73650;SDS011;61944;52.538;6.108;2022-09-28T09:39:11;6.05;;;2.13;;
73650;SDS011;61944;52.538;6.108;2022-09-28T09:42:52;2.88;;;1.70;;
73650;SDS011;61944;52.538;6.108;2022-09-28T09:45:10;3.40;;;1.02;;
73650;SDS011;61944;52.538;6.108;2022-09-28T09:47:52;2.08;;;1.40;;
73650;SDS011;61944;52.538;6.108;2022-09-28T09:50:26;8.02;;;1.45;;
73650;SDS011;61944;52.538;6.108;2022-09-28T09:52:57;4.00;;;1.63;;
73650;SDS011;61944;52.538;6.108;2022-09-28T09:55:28;1.73;;;1.10;;
73650;SDS011;61944;52.538;6.108;2022-09-28T09:58:15;2.65;;;0.88;;
73650;SDS011;61944;52.538;6.108;2022-09-28T10:00:51;1.90;;;1.05;;
73650;SDS011;61944;52.538;6.108;2022-09-28T10:06:00;2.72;;;1.00;;
73650;SDS011;61944;52.538;6.108;2022-09-28T10:08:30;3.35;;;1.00;;
73650;SDS011;61944;52.538;6.108;2022-09-28T10:11:06;5.27;;;1.30;;
73650;SDS011;61944;52.538;6.108;2022-09-28T10:13:36;1.33;;;1.00;;
73650;SDS011;61944;52.538;6.108;2022-09-28T10:16:03;1.50;;;0.93;;
73650;SDS011;61944;52.538;6.108;2022-09-28T10:18:29;2.47;;;0.90;;
73650;SDS011;61944;52.538;6.108;2022-09-28T10:20:55;0.77;;;0.70;;
73650;SDS011;61944;52.538;6.108;2022-09-28T10:23:21;2.80;;;0.80;;
73650;SDS011;61944;52.538;6.108;2022-09-28T10:25:51;2.47;;;0.90;;
73650;SDS011;61944;52.538;6.108;2022-09-28T10:28:25;1.10;;;0.80;;
73650;SDS011;61944;52.538;6.108;2022-09-28T10:31:33;2.35;;;0.90;;
73650;SDS011;61944;52.538;6.108;2022-09-28T10:34:10;2.95;;;0.80;;
73650;SDS011;61944;52.538;6.108;2022-09-28T10:41:51;3.45;;;1.00;;
73650;SDS011;61944;52.538;6.108;2022-09-28T10:44:18;3.17;;;1.10;;
73650;SDS011;61944;52.538;6.108;2022-09-28T10:46:53;1.35;;;0.82;;
73650;SDS011;61944;52.538;6.108;2022-09-28T10:49:27;4.80;;;1.00;;
73650;SDS011;61944;52.538;6.108;2022-09-28T10:52:02;6.90;;;1.65;;
73650;SDS011;61944;52.538;6.108;2022-09-28T10:54:29;2.65;;;1.20;;
73650;SDS011;61944;52.538;6.108;2022-09-28T10:56:55;2.92;;;1.13;;
73650;SDS011;61944;52.538;6.108;2022-09-28T11:04:25;2.78;;;0.75;;
73650;SDS011;61944;52.538;6.108;2022-09-28T11:06:53;1.10;;;0.90;;
73650;SDS011;61944;52.538;6.108;2022-09-28T11:09:32;3.50;;;0.85;;
73650;SDS011;61944;52.538;6.108;2022-09-28T11:12:05;4.80;;;1.00;;
73650;SDS011;61944;52.538;6.108;2022-09-28T11:19:57;2.75;;;1.20;;
73650;SDS011;61944;52.538;6.108;2022-09-28T11:32:47;2.28;;;1.15;;
73650;SDS011;61944;52.538;6.108;2022-09-28T11:35:19;1.10;;;0.70;;
73650;SDS011;61944;52.538;6.108;2022-09-28T11:46:11;2.45;;;1.15;;
73650;SDS011;61944;52.538;6.108;2022-09-28T11:49:00;2.08;;;1.25;;
73650;SDS011;61944;52.538;6.108;2022-09-28T11:51:35;2.40;;;1.13;;
73650;SDS011;61944;52.538;6.108;2022-09-28T11:54:24;3.28;;;1.58;;
73650;SDS011;61944;52.538;6.108;2022-09-28T11:56:58;2.95;;;0.90;;
73650;SDS011;61944;52.538;6.108;2022-09-28T11:59:30;2.67;;;0.95;;
73650;SDS011;61944;52.538;6.108;2022-09-28T12:04:49;4.30;;;2.47;;
73650;SDS011;61944;52.538;6.108;2022-09-28T12:07:36;8.52;;;3.53;;
73650;SDS011;61944;52.538;6.108;2022-09-28T12:10:10;4.60;;;1.95;;
73650;SDS011;61944;52.538;6.108;2022-09-28T12:12:46;3.85;;;1.20;;
73650;SDS011;61944;52.538;6.108;2022-09-28T12:15:29;2.65;;;1.73;;
73650;SDS011;61944;52.538;6.108;2022-09-28T12:18:06;2.88;;;1.17;;
73650;SDS011;61944;52.538;6.108;2022-09-28T12:20:45;23.13;;;2.83;;
73650;SDS011;61944;52.538;6.108;2022-09-28T12:25:54;3.20;;;1.83;;
73650;SDS011;61944;52.538;6.108;2022-09-28T12:30:54;1.10;;;1.00;;
73650;SDS011;61944;52.538;6.108;2022-09-28T12:33:23;2.35;;;1.20;;
73650;SDS011;61944;52.538;6.108;2022-09-28T12:36:03;1.63;;;0.80;;
73650;SDS011;61944;52.538;6.108;2022-09-28T12:56:16;2.25;;;0.70;;
73650;SDS011;61944;52.538;6.108;2022-09-28T13:01:35;1.65;;;0.50;;
73650;SDS011;61944;52.538;6.108;2022-09-28T13:07:14;2.90;;;0.47;;
73650;SDS011;61944;52.538;6.108;2022-09-28T13:15:40;3.67;;;0.70;;
73650;SDS011;61944;52.538;6.108;2022-09-28T13:24:01;4.55;;;0.65;;
73650;SDS011;61944;52.538;6.108;2022-09-28T13:26:30;0.57;;;0.47;;
73650;SDS011;61944;52.538;6.108;2022-09-28T13:29:02;0.73;;;0.50;;
73650;SDS011;61944;52.538;6.108;2022-09-28T13:31:34;0.60;;;0.60;;
73650;SDS011;61944;52.538;6.108;2022-09-28T13:34:04;1.45;;;0.40;;
73650;SDS011;61944;52.538;6.108;2022-09-28T13:36:35;0.55;;;0.50;;
73650;SDS011;61944;52.538;6.108;2022-09-28T13:39:01;1.70;;;0.70;;
73650;SDS011;61944;52.538;6.108;2022-09-28T13:50:04;2.67;;;0.75;;
73650;SDS011;61944;52.538;6.108;2022-09-28T13:53:15;3.17;;;0.80;;
73650;SDS011;61944;52.538;6.108;2022-09-28T14:00:53;1.50;;;1.00;;
73650;SDS011;61944;52.538;6.108;2022-09-28T14:06:43;1.90;;;1.17;;
73650;SDS011;61944;52.538;6.108;2022-09-28T14:09:37;4.60;;;1.50;;
73650;SDS011;61944;52.538;6.108;2022-09-28T14:14:59;1.70;;;0.90;;
73650;SDS011;61944;52.538;6.108;2022-09-28T14:19:55;1.45;;;1.20;;
73650;SDS011;61944;52.538;6.108;2022-09-28T14:25:30;4.13;;;0.80;;
73650;SDS011;61944;52.538;6.108;2022-09-28T14:35:55;0.65;;;0.57;;
73650;SDS011;61944;52.538;6.108;2022-09-28T14:44:02;0.73;;;0.60;;
73650;SDS011;61944;52.538;6.108;2022-09-28T14:46:33;8.80;;;0.90;;
73650;SDS011;61944;52.538;6.108;2022-09-28T14:59:05;24.38;;;4.03;;
73650;SDS011;61944;52.538;6.108;2022-09-28T15:01:36;42.08;;;4.45;;
73650;SDS011;61944;52.538;6.108;2022-09-28T15:04:07;26.10;;;2.20;;
73650;SDS011;61944;52.538;6.108;2022-09-28T15:06:46;20.65;;;2.63;;
73650;SDS011;61944;52.538;6.108;2022-09-28T15:09:25;22.65;;;2.25;;
73650;SDS011;61944;52.538;6.108;2022-09-28T15:12:01;16.63;;;2.85;;
73650;SDS011;61944;52.538;6.108;2022-09-28T15:14:28;6.70;;;1.67;;
73650;SDS011;61944;52.538;6.108;2022-09-28T15:17:00;2.63;;;1.52;;
73650;SDS011;61944;52.538;6.108;2022-09-28T15:21:58;3.83;;;0.90;;
73650;SDS011;61944;52.538;6.108;2022-09-28T15:26:51;6.78;;;0.90;;
73650;SDS011;61944;52.538;6.108;2022-09-28T15:29:17;0.50;;;0.45;;
73650;SDS011;61944;52.538;6.108;2022-09-28T15:31:43;5.03;;;1.02;;
73650;SDS011;61944;52.538;6.108;2022-09-28T15:37:28;1.83;;;0.60;;
73650;SDS011;61944;52.538;6.108;2022-09-28T15:40:00;1.95;;;0.60;;
73650;SDS011;61944;52.538;6.108;2022-09-28T15:42:27;1.05;;;0.80;;
73650;SDS011;61944;52.538;6.108;2022-09-28T15:47:37;1.92;;;0.70;;
73650;SDS011;61944;52.538;6.108;2022-09-28T15:52:57;1.98;;;0.77;;
73650;SDS011;61944;52.538;6.108;2022-09-28T15:55:32;2.55;;;1.08;;
73650;SDS011;61944;52.538;6.108;2022-09-28T15:58:14;1.63;;;0.85;;
73650;SDS011;61944;52.538;6.108;2022-09-28T16:00:43;2.33;;;1.00;;
73650;SDS011;61944;52.538;6.108;2022-09-28T16:08:15;0.45;;;0.43;;
73650;SDS011;61944;52.538;6.108;2022-09-28T16:11:06;1.70;;;0.80;;
73650;SDS011;61944;52.538;6.108;2022-09-28T16:16:27;1.60;;;0.75;;
73650;SDS011;61944;52.538;6.108;2022-09-28T16:18:56;1.83;;;0.60;;
73650;SDS011;61944;52.538;6.108;2022-09-28T16:23:55;2.55;;;0.93;;
73650;SDS011;61944;52.538;6.108;2022-09-28T16:26:35;0.98;;;0.60;;
73650;SDS011;61944;52.538;6.108;2022-09-28T16:29:22;0.82;;;0.68;;
73650;SDS011;61944;52.538;6.108;2022-09-28T16:37:34;4.20;;;1.98;;
73650;SDS011;61944;52.538;6.108;2022-09-28T16:40:01;2.85;;;0.80;;
73650;SDS011;61944;52.538;6.108;2022-09-28T16:42:27;2.15;;;1.02;;
73650;SDS011;61944;52.538;6.108;2022-09-28T16:44:52;3.65;;;0.90;;
73650;SDS011;61944;52.538;6.108;2022-09-28T16:47:20;2.70;;;1.58;;
73650;SDS011;61944;52.538;6.108;2022-09-28T16:49:46;1.85;;;0.90;;
73650;SDS011;61944;52.538;6.108;2022-09-28T16:52:12;1.85;;;0.70;;
73650;SDS011;61944;52.538;6.108;2022-09-28T16:54:38;1.20;;;0.60;;
73650;SDS011;61944;52.538;6.108;2022-09-28T16:57:22;0.70;;;0.40;;
73650;SDS011;61944;52.538;6.108;2022-09-28T16:59:47;1.33;;;0.60;;
73650;SDS011;61944;52.538;6.108;2022-09-28T17:02:19;2.65;;;1.02;;
73650;SDS011;61944;52.538;6.108;2022-09-28T17:04:49;1.17;;;1.10;;
73650;SDS011;61944;52.538;6.108;2022-09-28T17:07:15;2.72;;;0.70;;
73650;SDS011;61944;52.538;6.108;2022-09-28T17:09:42;1.30;;;0.90;;
73650;SDS011;61944;52.538;6.108;2022-09-28T17:12:14;5.18;;;0.80;;
73650;SDS011;61944;52.538;6.108;2022-09-28T17:14:41;1.13;;;0.60;;
73650;SDS011;61944;52.538;6.108;2022-09-28T17:17:07;1.00;;;0.88;;
73650;SDS011;61944;52.538;6.108;2022-09-28T17:19:33;1.90;;;0.80;;
73650;SDS011;61944;52.538;6.108;2022-09-28T17:21:58;2.05;;;1.17;;
73650;SDS011;61944;52.538;6.108;2022-09-28T17:24:24;2.35;;;1.30;;
73650;SDS011;61944;52.538;6.108;2022-09-28T17:26:50;2.95;;;1.10;;
73650;SDS011;61944;52.538;6.108;2022-09-28T17:29:16;3.00;;;1.10;;
73650;SDS011;61944;52.538;6.108;2022-09-28T17:31:43;2.30;;;1.10;;
73650;SDS011;61944;52.538;6.108;2022-09-28T17:34:10;5.40;;;1.52;;
73650;SDS011;61944;52.538;6.108;2022-09-28T17:36:36;3.22;;;1.35;;
73650;SDS011;61944;52.538;6.108;2022-09-28T17:39:02;4.50;;;1.20;;
73650;SDS011;61944;52.538;6.108;2022-09-28T17:41:28;5.57;;;1.50;;
73650;SDS011;61944;52.538;6.108;2022-09-28T17:43:54;2.55;;;1.30;;
73650;SDS011;61944;52.538;6.108;2022-09-28T17:48:51;3.10;;;1.98;;
73650;SDS011;61944;52.538;6.108;2022-09-28T17:51:17;4.68;;;2.85;;
73650;SDS011;61944;52.538;6.108;2022-09-28T17:53:42;2.35;;;1.65;;
73650;SDS011;61944;52.538;6.108;2022-09-28T17:56:07;4.30;;;2.25;;
73650;SDS011;61944;52.538;6.108;2022-09-28T17:58:33;2.33;;;1.73;;
73650;SDS011;61944;52.538;6.108;2022-09-28T18:00:59;3.05;;;2.00;;
73650;SDS011;61944;52.538;6.108;2022-09-28T18:03:24;4.45;;;2.05;;
73650;SDS011;61944;52.538;6.108;2022-09-28T18:06:23;4.20;;;2.30;;
73650;SDS011;61944;52.538;6.108;2022-09-28T18:08:46;7.40;;;2.63;;
73650;SDS011;61944;52.538;6.108;2022-09-28T18:11:12;9.13;;;2.85;;
73650;SDS011;61944;52.538;6.108;2022-09-28T18:13:37;5.78;;;3.15;;
73650;SDS011;61944;52.538;6.108;2022-09-28T18:16:03;5.43;;;2.80;;
73650;SDS011;61944;52.538;6.108;2022-09-28T18:18:30;3.42;;;3.13;;
73650;SDS011;61944;52.538;6.108;2022-09-28T18:20:58;4.10;;;2.60;;
73650;SDS011;61944;52.538;6.108;2022-09-28T18:23:24;3.78;;;2.30;;
73650;SDS011;61944;52.538;6.108;2022-09-28T18:25:49;4.68;;;2.65;;